Flight Track Log - Related Links

Times and Time Zones

All times are in EDT time to prevent confusion due to time zone crossing. See the JBU1013 flight status page for this flight to view local times or setup timezone preferences in your user account.

Time Position Orientation Groundspeed Altitude Reporting Facility
EDT Latitude Longitude Course Direction KTS MPH feet Rate Location/Type
Sat 07:39:09 PM 40.6000 -73.8000 270° West 177 204 1,800  Level New York TRACON
Sat 07:40:09 PM 40.5500 -73.8167 194° South 237 273 3,100 2,143 Climbing New York TRACON
Sat 07:41:00 PM 41.0093 -73.7667 North  Level FlightAware Approximate
Sat 07:42:00 PM 41.1065 -73.8119 281° West  Level FlightAware Approximate
Sat 07:42:39 PM 40.6233 -73.6175 64° Northeast 300 345 9,300  Level New York Center
Sat 07:43:00 PM 41.1373 -73.9696 285° West  Level FlightAware Approximate
Sat 07:43:41 PM 40.7114 -73.5856 15° North 293 337 11,000  Level New York Center
Sat 07:44:00 PM 41.1667 -74.1272 270° West  Level FlightAware Approximate
Sat 07:44:40 PM 40.8178 -73.5872 359° North 355 409 12,400  Level New York Center
Sat 07:45:40 PM 40.9044 -73.6236 342° North 363 418 15,100 2,678 Climbing New York Center
Sat 07:46:41 PM 40.9944 -73.6908 331° Northwest 346 398 17,800 1,462 Climbing New York Center
Sat 07:47:39 PM 41.0822 -73.7578 330° Northwest 346 398 18,000 407 Climbing New York Center
Sat 07:48:39 PM 41.1272 -73.8700 298° West 377 434 18,600 934 Climbing New York Center
Sat 07:49:41 PM 41.1542 -74.0311 283° West 394 453 19,900 1,180 Climbing New York Center
Sat 07:50:41 PM 41.1769 -74.1808 281° West 406 467 21,000 1,563 Climbing New York Center
Sat 07:51:40 PM 41.1828 -74.3328 273° West 413 475 23,000 2,034 Climbing New York Center
Sat 07:52:39 PM 41.1639 -74.4753 260° West 397 457 25,000 1,664 Climbing New York Center
Sat 07:53:39 PM 41.1283 -74.6136 251° West 404 465 26,300 800 Climbing New York Center
Sat 07:54:39 PM 41.0717 -74.7453 240° Southwest 405 466 26,600 300 Climbing New York Center
Sat 07:55:39 PM 41.0089 -74.8792 238° Southwest 416 479 26,900 397 Climbing New York Center
Sat 07:56:40 PM 40.9414 -75.0206 238° Southwest 435 501 27,400 600 Climbing New York Center
Sat 07:57:39 PM 40.8736 -75.1644 238° Southwest 455 524 28,100 850 Climbing New York Center
Sat 07:58:40 PM 40.7994 -75.3078 236° Southwest 467 537 29,100 843 Climbing New York Center
Sat 07:59:40 PM 40.7375 -75.4544 241° Southwest 472 543 29,800 992 Climbing New York Center
Sat 08:00:41 PM 40.6833 -75.6094 245° Southwest 460 529 31,100 1,059 Climbing New York Center
Sat 08:01:39 PM 40.6272 -75.7558 243° Southwest 460 529 31,900 763 Climbing New York Center
Sat 08:02:39 PM 40.5728 -75.9050 244° Southwest 460 529 32,600 843 Climbing New York Center
Sat 08:03:40 PM 40.5078 -76.0556 240° Southwest 460 529 33,600 700 Climbing New York Center
Sat 08:04:39 PM 40.4511 -76.2067 244° Southwest 460 529 34,000 202 Climbing New York Center
Sat 08:05:39 PM 40.3961 -76.3550 244° Southwest 455 524 34,000  Level New York Center
Sat 08:06:40 PM 40.3392 -76.4975 242° Southwest 455 524 34,000  Level New York Center
Sat 08:07:41 PM 40.2800 -76.6450 242° Southwest 455 524 34,000  Level New York Center
Sat 08:08:39 PM 40.1908 -76.7597 225° Southwest 451 519 34,000  Level New York Center
Sat 08:09:40 PM 40.1019 -76.8661 222° Southwest 451 519 34,000  Level New York Center
Sat 08:10:41 PM 40.0364 -77.0042 238° Southwest 451 519 34,000  Level New York Center
Sat 08:12:24 PM 40.1069 -77.2847 288° West 432 497 34,000  Level Cleveland Center
Sat 08:13:24 PM 40.1717 -77.4311 300° West 442 509 34,000  Level Cleveland Center
Sat 08:14:24 PM 40.1781 -77.5939 273° West 435 501 34,000 -50 Level Cleveland Center
Sat 08:15:24 PM 40.1719 -77.7600 267° West 446 513 33,900  Descending Cleveland Center
Sat 08:16:24 PM 40.1628 -77.8989 265° West 461 531 34,000 50 Climbing Cleveland Center
Sat 08:17:24 PM 40.1522 -78.0758 266° West 461 531 34,000  Level Cleveland Center
Sat 08:18:24 PM 40.1411 -78.2419 265° West 461 531 34,000  Level Cleveland Center
Sat 08:19:24 PM 40.1339 -78.4106 267° West 461 531 34,000  Level Cleveland Center
Sat 08:20:24 PM 40.1244 -78.5767 266° West 461 531 34,000  Level Cleveland Center
Sat 08:21:24 PM 40.1150 -78.7453 266° West 461 531 34,000  Level Cleveland Center
Sat 08:22:24 PM 40.1069 -78.9111 266° West 461 531 34,000 -50 Level Cleveland Center
Sat 08:23:24 PM 40.0969 -79.0769 266° West 461 531 33,900  Descending Cleveland Center
Sat 08:24:24 PM 40.0864 -79.2481 265° West 467 537 34,000 50 Climbing Cleveland Center
Sat 08:25:24 PM 40.0800 -79.4136 267° West 467 537 34,000  Level Cleveland Center
Sat 08:26:24 PM 40.0692 -79.5847 265° West 467 537 34,000  Level Cleveland Center
Sat 08:27:24 PM 40.0578 -79.7531 265° West 467 537 34,000  Level Cleveland Center
Sat 08:28:24 PM 40.0486 -79.9186 266° West 467 537 34,000  Level Cleveland Center
Sat 08:29:24 PM 40.0369 -80.0897 265° West 467 537 34,000  Level Cleveland Center
Sat 08:30:24 PM 40.0250 -80.2578 265° West 467 537 34,000  Level Cleveland Center
Sat 08:31:24 PM 40.0150 -80.4286 266° West 467 537 34,000  Level Cleveland Center
Sat 08:32:24 PM 40.0006 -80.5994 264° West 472 543 34,000  Level Cleveland Center
Sat 08:33:24 PM 39.9900 -80.7700 265° West 472 543 34,000  Level Cleveland Center
Sat 08:34:16 PM 39.9756 -80.9294 263° West 470 541 34,000  Level Indianapolis Center
Sat 08:35:17 PM 39.9625 -81.0992 264° West 468 539 34,000  Level Indianapolis Center
Sat 08:36:18 PM 39.9528 -81.2442 265° West 465 535 34,000  Level Indianapolis Center
Sat 08:37:19 PM 39.9364 -81.4439 264° West 464 534 34,000  Level Indianapolis Center
Sat 08:38:20 PM 39.9250 -81.5919 264° West 468 539 34,000  Level Indianapolis Center
Sat 08:39:21 PM 39.9111 -81.7603 264° West 467 537 34,000  Level Indianapolis Center
Sat 08:40:22 PM 39.8953 -81.9597 264° West 470 541 34,000  Level Indianapolis Center
Sat 08:41:23 PM 39.8811 -82.1300 264° West 470 541 34,000  Level Indianapolis Center
Sat 08:42:24 PM 39.8658 -82.2997 263° West 468 539 34,000  Level Indianapolis Center
Sat 08:43:25 PM 39.8511 -82.4694 264° West 468 539 34,000  Level Indianapolis Center
Sat 08:44:26 PM 39.8367 -82.6394 264° West 470 541 34,000  Level Indianapolis Center
Sat 08:45:27 PM 39.8208 -82.8092 263° West 468 539 34,000  Level Indianapolis Center
Sat 08:46:28 PM 39.8058 -82.9792 264° West 469 540 34,000  Level Indianapolis Center
Sat 08:47:29 PM 39.7894 -83.1481 263° West 468 539 34,000  Level Indianapolis Center
Sat 08:48:30 PM 39.7725 -83.3175 263° West 467 537 34,000  Level Indianapolis Center
Sat 08:49:31 PM 39.7567 -83.4958 263° West 476 548 34,000  Level Indianapolis Center
Sat 08:50:32 PM 39.7408 -83.6419 262° West 474 545 34,000 -49 Level Indianapolis Center
Sat 08:51:33 PM 39.7247 -83.8119 263° West 469 540 33,900  Descending Indianapolis Center
Sat 08:52:34 PM 39.7092 -83.9808 263° West 467 537 34,000 49 Climbing Indianapolis Center
Sat 08:53:35 PM 39.6911 -84.1497 262° West 468 539 34,000  Level Indianapolis Center
Sat 08:54:36 PM 39.6706 -84.3467 262° West 469 540 34,000  Level Indianapolis Center
Sat 08:55:37 PM 39.6528 -84.5136 262° West 464 534 34,000 -49 Level Indianapolis Center
Sat 08:56:38 PM 39.6358 -84.6789 262° West 460 529 33,900 -49 Descending Indianapolis Center
Sat 08:57:39 PM 39.6186 -84.8453 262° West 462 532 33,900 49 Level Indianapolis Center
Sat 08:58:40 PM 39.5989 -85.0083 261° West 464 534 34,000 49 Climbing Indianapolis Center
Sat 08:59:41 PM 39.5814 -85.1742 262° West 464 534 34,000  Level Indianapolis Center
Sat 09:00:42 PM 39.5631 -85.3386 262° West 462 532 34,000  Level Indianapolis Center
Sat 09:01:43 PM 39.5433 -85.5014 261° West 459 528 34,000 197 Level Indianapolis Center
Sat 09:02:44 PM 39.5256 -85.6631 262° West 455 524 34,400 590 Climbing Indianapolis Center
Sat 09:03:45 PM 39.5056 -85.8264 261° West 459 528 35,200 689 Climbing Indianapolis Center
Sat 09:04:46 PM 39.4867 -85.9883 261° West 455 524 35,800 393 Climbing Indianapolis Center
Sat 09:05:47 PM 39.4664 -86.1525 261° West 458 527 36,000 98 Climbing Indianapolis Center
Sat 09:06:48 PM 39.4469 -86.3194 261° West 464 534 36,000  Level Indianapolis Center
Sat 09:07:49 PM 39.4008 -86.4708 249° West 447 514 36,000  Level Indianapolis Center
Sat 09:08:50 PM 39.3481 -86.6169 245° Southwest 447 514 36,000  Level Indianapolis Center
Sat 09:09:51 PM 39.2958 -86.7614 245° Southwest 443 510 36,000  Level Indianapolis Center
Sat 09:10:52 PM 39.2458 -86.9064 246° West 443 510 36,000  Level Indianapolis Center
Sat 09:11:53 PM 39.1908 -87.0853 248° West 448 516 36,000  Level Indianapolis Center
Sat 09:12:54 PM 39.1481 -87.2361 250° West 448 516 36,000  Level Indianapolis Center
Sat 09:13:55 PM 39.1067 -87.3786 250° West 451 519 36,000 -49 Level Indianapolis Center
Sat 09:14:56 PM 39.0614 -87.5289 249° West 452 520 35,900  Descending Indianapolis Center
Sat 09:15:57 PM 39.0172 -87.6828 250° West 457 526 36,000 49 Climbing Indianapolis Center
Sat 09:16:58 PM 38.9739 -87.8428 251° West 471 542 36,000  Level Indianapolis Center
Sat 09:17:59 PM 38.9311 -88.0056 251° West 479 551 36,000 57 Level Indianapolis Center
Sat 09:18:44 PM 38.9056 -88.1447 257° West 489 563 36,100 57 Climbing Kansas City Center
Sat 09:19:45 PM 38.8972 -88.3217 267° West 497 572 36,100 -49 Level Kansas City Center
Sat 09:20:46 PM 38.8892 -88.4975 267° West 495 570 36,000 -49 Descending Kansas City Center
Sat 09:21:47 PM 38.8800 -88.6603 266° West 493 567 36,000  Level Kansas City Center
Sat 09:22:48 PM 38.8703 -88.8658 267° West 485 558 36,000  Level Kansas City Center
Sat 09:23:49 PM 38.8608 -89.0414 266° West 486 559 36,000  Level Kansas City Center
Sat 09:24:50 PM 38.8514 -89.2144 266° West 488 562 36,000  Level Kansas City Center
Sat 09:25:51 PM 38.8414 -89.4014 266° West 490 564 36,000  Level Kansas City Center
Sat 09:26:52 PM 38.8306 -89.5756 265° West 491 565 36,000 49 Level Kansas City Center
Sat 09:27:53 PM 38.8197 -89.7339 265° West 492 566 36,100  Climbing Kansas City Center
Sat 09:28:55 PM 38.8089 -89.9067 265° West 490 564 36,000 -49 Descending Kansas City Center
Sat 09:29:56 PM 38.7978 -90.1011 266° West 489 563 36,000  Level Kansas City Center
Sat 09:30:57 PM 38.7869 -90.2772 266° West 494 568 36,000  Level Kansas City Center
Sat 09:31:58 PM 38.7711 -90.4547 264° West 498 573 36,000 49 Level Kansas City Center
Sat 09:32:59 PM 38.7583 -90.6328 265° West 500 575 36,100  Climbing Kansas City Center
Sat 09:34:00 PM 38.7475 -90.8139 266° West 517 595 36,000 -98 Descending Kansas City Center
Sat 09:35:01 PM 38.7347 -90.9864 265° West 505 581 35,900  Descending Kansas City Center
Sat 09:36:03 PM 38.7222 -91.1608 265° West 498 573 36,000 49 Climbing Kansas City Center
Sat 09:37:04 PM 38.7086 -91.3339 264° West 494 568 36,000  Level Kansas City Center
Sat 09:38:05 PM 38.6969 -91.5106 265° West 490 564 36,000  Level Kansas City Center
Sat 09:39:06 PM 38.6803 -91.7228 264° West 497 572 36,000  Level Kansas City Center
Sat 09:40:07 PM 38.6650 -91.8953 264° West 495 570 36,000  Level Kansas City Center
Sat 09:41:08 PM 38.6500 -92.0683 264° West 492 566 36,000  Level Kansas City Center
Sat 09:42:09 PM 38.6358 -92.2439 264° West 494 568 36,000  Level Kansas City Center
Sat 09:43:10 PM 38.6217 -92.4186 264° West 496 571 36,000  Level Kansas City Center
Sat 09:44:12 PM 38.6067 -92.5936 264° West 497 572 36,000  Level Kansas City Center
Sat 09:45:13 PM 38.5906 -92.7681 263° West 498 573 36,000  Level Kansas City Center
Sat 09:46:14 PM 38.5742 -92.9400 263° West 495 570 36,000  Level Kansas City Center
Sat 09:47:15 PM 38.5592 -93.1067 263° West 486 559 36,000  Level Kansas City Center
Sat 09:48:16 PM 38.5414 -93.3092 264° West 480 552 36,000  Level Kansas City Center
Sat 09:49:17 PM 38.5247 -93.4764 263° West 477 549 36,000  Level Kansas City Center
Sat 09:50:19 PM 38.5086 -93.6422 263° West 474 545 36,000  Level Kansas City Center
Sat 09:51:20 PM 38.4950 -93.7892 263° West 473 544 36,000  Level Kansas City Center
Sat 09:52:21 PM 38.4764 -93.9731 263° West 469 540 36,000  Level Kansas City Center
Sat 09:53:22 PM 38.4614 -94.1303 263° West 464 534 36,000  Level Kansas City Center
Sat 09:54:23 PM 38.4425 -94.3108 262° West 466 536 36,000  Level Kansas City Center
Sat 09:55:24 PM 38.4250 -94.4656 262° West 462 532 36,000  Level Kansas City Center
Sat 09:56:25 PM 38.3867 -94.6172 252° West 466 536 36,000  Level Kansas City Center
Sat 09:57:27 PM 38.3442 -94.7950 253° West 468 539 36,000  Level Kansas City Center
Sat 09:58:28 PM 38.3017 -94.9453 250° West 470 541 36,000  Level Kansas City Center
Sat 09:59:29 PM 38.2600 -95.0956 251° West 469 540 36,000  Level Kansas City Center
Sat 10:00:30 PM 38.2139 -95.2714 252° West 469 540 36,000  Level Kansas City Center
Sat 10:01:31 PM 38.1917 -95.4283 260° West 462 532 36,000  Level Kansas City Center
Sat 10:02:32 PM 38.1756 -95.5817 262° West 459 528 36,000  Level Kansas City Center
Sat 10:03:33 PM 38.1556 -95.7628 262° West 461 531 36,000  Level Kansas City Center
Sat 10:04:34 PM 38.1386 -95.9197 262° West 465 535 36,000  Level Kansas City Center
Sat 10:05:35 PM 38.1211 -96.0781 262° West 472 543 36,000  Level Kansas City Center
Sat 10:06:37 PM 38.0994 -96.2675 262° West 477 549 36,000  Level Kansas City Center
Sat 10:07:38 PM 38.0797 -96.4331 261° West 476 548 36,000  Level Kansas City Center
Sat 10:08:39 PM 38.0611 -96.5994 262° West 475 547 36,000  Level Kansas City Center
Sat 10:09:40 PM 38.0419 -96.7642 262° West 473 544 36,000  Level Kansas City Center
Sat 10:10:41 PM 38.0222 -96.9275 261° West 470 541 36,000  Level Kansas City Center
Sat 10:11:42 PM 38.0031 -97.0903 262° West 467 537 36,000  Level Kansas City Center
Sat 10:12:43 PM 37.9831 -97.2517 261° West 465 535 36,000  Level Kansas City Center
Sat 10:13:44 PM 37.9625 -97.4122 261° West 462 532 36,000  Level Kansas City Center
Sat 10:14:45 PM 37.9403 -97.5997 262° West 468 539 36,000  Level Kansas City Center
Sat 10:15:46 PM 37.9197 -97.7619 261° West 469 540 36,000  Level Kansas City Center
Sat 10:16:47 PM 37.9017 -97.9133 261° West 470 541 36,000  Level Kansas City Center
Sat 10:17:48 PM 37.8800 -98.0756 260° West 470 541 36,000  Level Kansas City Center
Sat 10:18:49 PM 37.8581 -98.2389 260° West 462 532 36,000  Level Kansas City Center
Sat 10:19:50 PM 37.8369 -98.3997 261° West 464 534 36,000  Level Kansas City Center
Sat 10:20:51 PM 37.8153 -98.5597 260° West 463 533 36,000  Level Kansas City Center
Sat 10:21:52 PM 37.7928 -98.7183 260° West 460 529 36,000  Level Kansas City Center
Sat 10:22:53 PM 37.7706 -98.8761 260° West 458 527 36,000  Level Kansas City Center
Sat 10:23:54 PM 37.7489 -99.0364 260° West 460 529 36,000  Level Kansas City Center
Sat 10:24:55 PM 37.7219 -99.2283 260° West 463 533 36,000  Level Kansas City Center
Sat 10:25:56 PM 37.6992 -99.3889 260° West 464 534 36,000  Level Kansas City Center
Sat 10:26:57 PM 37.6778 -99.5369 260° West 463 533 36,000  Level Kansas City Center
Sat 10:27:59 PM 37.6525 -99.7144 260° West 461 531 36,000  Level Kansas City Center
Sat 10:29:00 PM 37.6306 -99.8656 260° West 459 528 36,000  Level Kansas City Center
Sat 10:30:01 PM 37.6083 -100.0156 259° West 456 525 36,000  Level Kansas City Center
Sat 10:31:02 PM 37.5825 -100.1892 259° West 452 520 36,000  Level Kansas City Center
Sat 10:32:03 PM 37.5597 -100.3386 259° West 452 520 36,000  Level Kansas City Center
Sat 10:33:04 PM 37.5378 -100.4839 259° West 453 521 36,000  Level Kansas City Center
Sat 10:34:05 PM 37.5103 -100.6672 259° West 458 527 36,000  Level Kansas City Center
Sat 10:35:06 PM 37.4853 -100.8219 259° West 462 532 36,000  Level Kansas City Center
Sat 10:36:07 PM 37.4608 -100.9767 259° West 464 534 36,000  Level Kansas City Center
Sat 10:37:08 PM 37.4344 -101.1533 259° West 459 528 36,000  Level Kansas City Center
Sat 10:38:09 PM 37.4114 -101.3022 259° West 454 522 36,000  Level Kansas City Center
Sat 10:39:10 PM 37.3844 -101.4500 257° West 454 522 36,000  Level Kansas City Center
Sat 10:40:11 PM 37.3267 -101.6136 246° West 458 527 36,000  Level Kansas City Center
Sat 10:41:12 PM 37.2808 -101.7564 248° West 460 529 36,000  Level Kansas City Center
Sat 10:42:13 PM 37.2336 -101.8964 247° West 456 525 36,000  Level Kansas City Center
Sat 10:43:39 PM 37.1650 -102.1075 248° West 455 524 36,000  Level Kansas City Center
Sat 10:44:40 PM 37.1133 -102.2722 249° West 456 525 36,000  Level Kansas City Center
Sat 10:45:11 PM 37.0903 -102.3456 249° West 457 526 36,000  Level Albuquerque Center
Sat 10:46:12 PM 37.0456 -102.4886 249° West 460 529 36,000  Level Albuquerque Center
Sat 10:47:13 PM 36.9928 -102.6558 248° West 457 526 36,000  Level Albuquerque Center
Sat 10:48:15 PM 36.9492 -102.7981 249° West 458 527 36,000  Level Albuquerque Center
Sat 10:49:15 PM 36.9028 -102.9411 248° West 461 531 36,000  Level Albuquerque Center
Sat 10:50:16 PM 36.8514 -103.1089 249° West 461 531 36,000  Level Albuquerque Center
Sat 10:51:17 PM 36.8297 -103.2583 260° West 461 531 36,000  Level Albuquerque Center
Sat 10:52:18 PM 36.8044 -103.4094 258° West 460 529 36,000  Level Albuquerque Center
Sat 10:53:19 PM 36.7758 -103.5853 259° West 461 531 36,000  Level Albuquerque Center
Sat 10:54:20 PM 36.7511 -103.7358 258° West 463 533 36,000  Level Albuquerque Center
Sat 10:55:21 PM 36.7261 -103.8858 258° West 460 529 36,000  Level Albuquerque Center
Sat 10:56:22 PM 36.7008 -104.0619 260° West 461 531 36,000  Level Albuquerque Center
Sat 10:57:23 PM 36.7056 -104.2147 272° West 460 529 36,000  Level Albuquerque Center
Sat 10:58:24 PM 36.7125 -104.3686 273° West 462 532 36,000  Level Albuquerque Center
Sat 10:59:25 PM 36.7178 -104.5450 272° West 457 526 36,000  Level Albuquerque Center
Sat 11:00:26 PM 36.7200 -104.6989 271° West 461 531 36,000  Level Albuquerque Center
Sat 11:01:27 PM 36.7200 -104.8494 270° West 457 526 36,000  Level Albuquerque Center
Sat 11:02:28 PM 36.7197 -105.0286 270° West 461 531 36,000  Level Albuquerque Center
Sat 11:03:30 PM 36.7192 -105.1806 270° West 460 529 36,000  Level Albuquerque Center
Sat 11:04:31 PM 36.7208 -105.3347 271° West 462 532 36,000  Level Albuquerque Center
Sat 11:05:32 PM 36.7211 -105.5119 270° West 460 529 36,000  Level Albuquerque Center
Sat 11:06:22 PM 36.7228 -105.6414 271° West 461 531 36,000  Level Denver Center
Sat 11:07:23 PM 36.7233 -105.7936 270° West 459 528 36,000  Level Denver Center
Sat 11:08:24 PM 36.7225 -105.9447 270° West 461 531 36,000  Level Denver Center
Sat 11:09:26 PM 36.6808 -106.1247 254° West 453 521 36,000  Level Denver Center
Sat 11:10:27 PM 36.6497 -106.2758 256° West 450 518 36,000  Level Denver Center
Sat 11:11:28 PM 36.6161 -106.4253 254° West 450 518 36,000  Level Denver Center
Sat 11:12:30 PM 36.5839 -106.5686 254° West 454 522 36,000  Level Denver Center
Sat 11:13:31 PM 36.5461 -106.7383 255° West 456 525 36,000  Level Denver Center
Sat 11:14:32 PM 36.5142 -106.8847 255° West 457 526 36,000  Level Denver Center
Sat 11:15:33 PM 36.4744 -107.0533 254° West 456 525 36,000  Level Denver Center
Sat 11:16:35 PM 36.4428 -107.1978 255° West 455 524 36,000  Level Denver Center
Sat 11:17:36 PM 36.4089 -107.3422 254° West 456 525 36,000 49 Level Denver Center
Sat 11:18:37 PM 36.3697 -107.5133 254° West 459 528 36,100 49 Climbing Denver Center
Sat 11:19:38 PM 36.3353 -107.6586 254° West 460 529 36,100 -49 Level Denver Center
Sat 11:20:39 PM 36.2964 -107.8275 254° West 457 526 36,000 -44 Descending Denver Center
Sat 11:21:53 PM 36.2631 -107.9717 254° West 456 525 36,000  Level Denver Center
Sat 11:22:54 PM 36.2167 -108.1639 253° West 456 525 36,000  Level Denver Center
Sat 11:23:55 PM 36.1825 -108.3092 254° West 458 527 36,000  Level Denver Center
Sat 11:24:56 PM 36.1475 -108.4536 253° West 459 528 36,000  Level Denver Center
Sat 11:25:57 PM 36.1181 -108.5728 253° West 456 525 36,000  Level Denver Center
Sat 11:26:59 PM 36.0708 -108.7597 253° West 449 517 36,000  Level Denver Center
Sat 11:28:00 PM 36.0339 -108.9036 252° West 486 559 36,000  Level Denver Center
Sat 11:29:01 PM 35.9950 -109.0683 254° West 462 532 36,000 49 Level Denver Center
Sat 11:30:02 PM 35.9553 -109.2364 254° West 456 525 36,100  Climbing Denver Center
Sat 11:31:03 PM 35.9186 -109.3789 252° West 455 524 36,000 -46 Descending Denver Center
Sat 11:32:12 PM 35.8767 -109.5447 253° West 456 525 36,000  Level Albuquerque Center
Sat 11:33:13 PM 35.8339 -109.7083 252° West 450 518 36,000  Level Albuquerque Center
Sat 11:34:14 PM 35.7978 -109.8503 253° West 451 519 36,000  Level Albuquerque Center
Sat 11:35:15 PM 35.7625 -109.9817 252° West 453 521 36,000  Level Albuquerque Center
Sat 11:36:16 PM 35.7203 -110.1564 253° West 452 520 36,000 49 Level Albuquerque Center
Sat 11:37:17 PM 35.6803 -110.2994 251° West 457 526 36,100  Climbing Albuquerque Center
Sat 11:38:18 PM 35.6433 -110.4422 252° West 458 527 36,000 -49 Descending Albuquerque Center
Sat 11:39:19 PM 35.6000 -110.6075 252° West 456 525 36,000  Level Albuquerque Center
Sat 11:40:20 PM 35.5650 -110.7492 253° West 453 521 36,000  Level Albuquerque Center
Sat 11:41:21 PM 35.5250 -110.8906 251° West 455 524 36,000  Level Albuquerque Center
Sat 11:42:22 PM 35.4819 -111.0558 252° West 456 525 36,000  Level Albuquerque Center
Sat 11:43:23 PM 35.4442 -111.1967 252° West 456 525 36,000  Level Albuquerque Center
Sat 11:44:24 PM 35.4006 -111.3636 252° West 459 528 36,000  Level Albuquerque Center
Sat 11:45:25 PM 35.3656 -111.4975 252° West 466 536 36,000  Level Albuquerque Center
Sat 11:46:26 PM 35.3242 -111.6444 251° West 463 533 36,000  Level Albuquerque Center
Sat 11:47:27 PM 35.2844 -111.7922 252° West 460 529 36,000  Level Albuquerque Center
Sat 11:48:28 PM 35.2439 -111.9411 252° West 462 532 36,000  Level Albuquerque Center
Sat 11:49:29 PM 35.2028 -112.0878 251° West 461 531 36,000  Level Albuquerque Center
Sat 11:50:29 PM 35.1536 -112.2644 251° West 460 529 36,000  Level Albuquerque Center
Sat 11:51:31 PM 35.1136 -112.4089 251° West 454 522 36,000  Level Albuquerque Center
Sat 11:52:31 PM 35.0725 -112.5542 251° West 453 521 36,000  Level Albuquerque Center
Sat 11:53:32 PM 35.0314 -112.6992 251° West 451 519 36,000  Level Albuquerque Center
Sat 11:54:33 PM 34.9900 -112.8450 251° West 453 521 36,000  Level Albuquerque Center
Sat 11:55:34 PM 34.9478 -112.9903 251° West 454 522 36,000  Level Albuquerque Center
Sat 11:56:35 PM 34.9053 -113.1361 250° West 455 524 36,000  Level Albuquerque Center
Sat 11:57:35 PM 34.8644 -113.2800 251° West 452 520 36,000  Level Albuquerque Center
Sat 11:58:36 PM 34.8225 -113.4231 250° West 450 518 36,000  Level Albuquerque Center
Sat 11:59:37 PM 34.7800 -113.5656 250° West 450 518 36,000  Level Albuquerque Center
Sun 12:00:38 AM 34.7392 -113.7075 251° West 449 517 36,000  Level Albuquerque Center
Sun 12:01:39 AM 34.6978 -113.8500 251° West 448 516 36,000  Level Albuquerque Center
Sun 12:02:40 AM 34.6486 -114.0067 249° West 445 512 36,000  Level Albuquerque Center
Sun 12:03:40 AM 34.6047 -114.1492 250° West 447 514 36,000  Level Albuquerque Center
Sun 12:04:41 AM 34.5611 -114.2889 249° West 445 512 36,000 -246 Level Albuquerque Center
Sun 12:05:42 AM 34.5194 -114.4225 249° West 431 496 35,500 -738 Descending Albuquerque Center
Sun 12:06:43 AM 34.4778 -114.5553 249° West 423 487 34,500 -978 Descending Albuquerque Center
Sun 12:07:57 AM 34.4278 -114.7150 249° West 434 499 33,300 -978 Descending Los Angeles Center
Sun 12:08:58 AM 34.3844 -114.8519 249° West 436 502 32,300 -639 Descending Los Angeles Center
Sun 12:09:59 AM 34.3403 -114.9892 249° West 438 504 32,000 -148 Descending Los Angeles Center
Sun 12:11:00 AM 34.2875 -115.1536 249° West 438 504 32,000 -49 Level Los Angeles Center
Sun 12:12:02 AM 34.2447 -115.2875 249° West 430 495 31,900 -98 Descending Los Angeles Center
Sun 12:13:03 AM 34.2014 -115.4225 249° West 433 498 31,800 -393 Descending Los Angeles Center
Sun 12:14:04 AM 34.1589 -115.5567 249° West 430 495 31,100 -738 Descending Los Angeles Center
Sun 12:15:05 AM 34.1144 -115.6908 248° West 432 497 30,300 -787 Descending Los Angeles Center
Sun 12:16:06 AM 34.0700 -115.8256 248° West 432 497 29,500 -634 Descending Los Angeles Center
Sun 12:17:08 AM 34.0261 -115.9589 248° West 431 496 29,000 -683 Descending Los Angeles Center
Sun 12:18:09 AM 33.9811 -116.0942 248° West 435 501 28,100 -1,672 Descending Los Angeles Center
Sun 12:19:10 AM 33.9372 -116.2292 249° West 435 501 25,600 -2,754 Descending Los Angeles Center
Sun 12:20:11 AM 33.8928 -116.3597 248° West 431 496 22,500 -3,098 Descending Los Angeles Center
Sun 12:21:12 AM 33.8739 -116.5214 262° West 412 474 19,300 -2,508 Descending Los Angeles Center
Sun 12:22:13 AM 33.8800 -116.6500 273° West 395 455 17,400 -1,967 Descending Los Angeles Center
Sun 12:23:14 AM 33.8853 -116.7753 273° West 380 437 15,300 -1,707 Descending Los Angeles Center
Sun 12:24:16 AM 33.8778 -116.8967 266° West 382 440 13,900 -1,366 Descending Los Angeles Center
Sun 12:25:17 AM 33.8614 -117.0169 261° West 366 421 12,500 -1,328 Descending Los Angeles Center
Sun 12:26:18 AM 33.8453 -117.1339 261° West 353 406 11,200 -1,188 Descending Los Angeles Center
Sun 12:26:58 AM 33.8333 -117.2167 260° West 321 369 10,500 -758 Descending Southern California TRACON
Sun 12:27:53 AM 33.8167 -117.3000 256° West 284 327 10,000 -887 Descending Southern California TRACON
Sun 12:28:53 AM 33.8000 -117.4000 259° West 282 325 8,800 -950 Descending Southern California TRACON
Sun 12:29:53 AM 33.8000 -117.4833 270° West 258 297 8,100 -400 Descending Southern California TRACON
Sun 12:30:53 AM 33.7833 -117.5667 256° West 246 283 8,000 -67 Descending Southern California TRACON
Sun 12:31:23 AM 33.7814 -117.5861 263° West 246 283 8,000 -600 Level Los Angeles Center
Sun 12:31:53 AM 33.7667 -117.6333 249° West 243 280 7,400 -1,467 Descending Southern California TRACON
Sun 12:32:53 AM 33.7500 -117.7167 256° West 239 275 5,800 -1,400 Descending Southern California TRACON
Sun 12:33:53 AM 33.6833 -117.7333 192° South 241 277 4,600 -893 Descending Southern California TRACON
Sun 12:34:54 AM 33.6500 -117.7833 231° Southwest 229 264 4,000 -298 Descending Southern California TRACON
Sun 12:35:54 AM 33.6500 -117.8667 270° West 217 250 4,000  Level Southern California TRACON
Sun 12:37:00 AM 33.6500 -117.9333 270° West 212 244 4,000 -238 Level Southern California TRACON
Sun 12:38:00 AM 33.6833 -117.9833 309° West 195 224 3,500 -737 Descending Southern California TRACON
Sun 12:38:54 AM 33.7167 -118.0333 309° West 203 234 2,600 -950 Descending Southern California TRACON
Sun 12:40:00 AM 33.7500 -118.0833 309° West 173 199 1,600 -850 Descending Southern California TRACON
Sun 12:40:54 AM 33.7833 -118.1000 337° Northwest 144 166 900 -700 Descending Southern California TRACON
Sun 12:42:00 AM 33.8167 -118.1333 320° Northwest 130 150 200 -480 Descending Southern California TRACON
Sun 12:42:34 AM 33.8233 -118.1581 288° West 146 168 100 -176 Descending Los Angeles Center

Login

Don't have an account? Register now (free) for customized features, flight alerts, and more!